Creighton, MO (64739)

9:08 AM CST on November 23, 2014 (GMT -0600)
Holden Missouri | Change Station
CLOSE
Current Station
Personal Weather Station
Location: Holden, MO
Elevation: 900 ft
Nearby Weather Stations

Elev 900 ft 38.70 °N, 93.99 °W | Updated 2 seconds ago

Overcast
Overcast
55.2 °F
Feels Like 55.2 °F
N
6.4
Wind Variable Wind from SSE
Gusts 10.4 mph

Today
High -- | Low -- °F
--% Chance of Precip.
Yesterday
High -- | Low -- °F
Precip. -- in
7:06 AM 4:58 PM
New Moon, 1% visible
Pressure 29.54 in
Visibility 8.0 miles
Clouds Few 3800 ft
Mostly Cloudy 4700 ft
Overcast 8000 ft
Dew Point 31 °F
Humidity 39%
Rainfall 0.04 in
Snow Depth Not available.
UV 0 out of 12
Pollen .10 out of 12
Air Quality Not available.
Flu Activity Not available.
METAR KGLY 231455Z AUTO 15008KT 8SM FEW038 BKN047 OVC080 14/13 A2954 RMK AO2

More Conditions Fewer Conditions

Pressure 29.54 in
Visibility 8.0 miles
Clouds Few 3800 ft
Mostly Cloudy 4700 ft
Overcast 8000 ft
Dew Point 31 °F
Humidity 39%
Rainfall 0.04 in
Snow Depth Not available.
UV 0 out of 12
Pollen .10 out of 12
Air Quality Not available.
Flu Activity Not available.
METAR KGLY 231455Z AUTO 15008KT 8SM FEW038 BKN047 OVC080 14/13 A2954 RMK AO2

More Conditions Fewer Conditions

10-Day Weather Forecast

Almanac

Astronomy

Nov. 23, 2014 Rise Set
Actual Time
Civil Twilight
Nautical Twilight
Astronomical Twilight
Moon
Length of Visible Light
Length of Day
Tomorrow will be .
, % of the Moon is Illuminated

Today's Extremes

State Highs State Lows

Community

WunderPhotos

Upload Photos

1,773,085 photos uploaded!

WunderBlogs® & News

Nearby

Air Quality

  Air Quality AQ Index Pollutant
Not available.

Snow Depth

Station Depth Elevation

Earthquake Activity

City Distance Mag. Time & Date
Minimum magnitude displayed is 2.5.

Coastal Water Temperatures

Place Temperature

Nearby Weather Stations